Time;durP1;ratioP1;P1;durP2;ratioP2;P2;SDS_P1;SDS_P2;PMS_P1;PMS_P2;Temp;Humidity;BMP_temperature;BMP_pressure;BME280_temperature;BME280_humidity;BME280_pressure;Samples;Min_cycle;Max_cycle;Signal;HPM_P1;HPM_P2
2023/10/18 00:00:28;;;;;;;6.53;1.80;;;35.30;30.00;;;;;;5040298;28;20073;-68
2023/10/18 00:02:55;;;;;;;17.35;2.60;;;35.20;33.80;;;;;;5043393;28;20017;-66
2023/10/18 00:05:23;;;;;;;12.65;2.20;;;35.10;30.80;;;;;;5048410;28;20092;-63
2023/10/18 00:07:51;;;;;;;10.80;2.40;;;35.00;32.80;;;;;;5051586;28;20477;-65
2023/10/18 00:10:18;;;;;;;12.35;2.60;;;34.90;31.10;;;;;;5052826;28;20389;-67
2023/10/18 00:12:45;;;;;;;16.73;3.00;;;34.90;31.60;;;;;;5045643;28;21354;-63
2023/10/18 00:15:12;;;;;;;18.02;2.28;;;34.80;32.50;;;;;;5057484;28;20086;-66
2023/10/18 00:17:39;;;;;;;10.60;1.90;;;34.80;31.60;;;;;;5052477;28;20027;-69
2023/10/18 00:20:25;;;;;;;17.45;2.63;;;34.80;31.30;;;;;;5050660;28;20047;-65
2023/10/18 00:22:53;;;;;;;14.60;2.00;;;34.70;31.30;;;;;;5053902;28;20017;-65
2023/10/18 00:25:23;;;;;;;14.20;2.55;;;34.60;32.40;;;;;;5051579;28;20020;-60
2023/10/18 00:27:49;;;;;;;26.08;3.85;;;34.60;31.90;;;;;;5052384;28;20020;-63
2023/10/18 00:30:18;;;;;;;15.07;4.07;;;34.50;32.20;;;;;;5053733;28;20013;-65
2023/10/18 00:32:44;;;;;;;18.38;3.97;;;34.40;31.00;;;;;;5055725;28;20029;-57
2023/10/18 00:35:31;;;;;;;17.30;3.85;;;34.40;32.20;;;;;;5052769;28;20029;-61
2023/10/18 00:37:58;;;;;;;12.02;2.50;;;34.30;32.90;;;;;;5044592;28;20039;-61
2023/10/18 00:43:41;;;;;;;21.17;3.78;;;34.10;31.20;;;;;;5049573;28;20037;-59
2023/10/18 00:45:58;;;;;;;15.88;2.78;;;34.00;31.20;;;;;;5045388;28;20742;-61
2023/10/18 00:48:28;;;;;;;15.68;2.70;;;33.90;31.30;;;;;;5045705;28;20372;-57
2023/10/18 00:50:58;;;;;;;15.90;2.70;;;33.90;32.10;;;;;;5048023;28;20058;-62
2023/10/18 00:53:25;;;;;;;20.23;3.47;;;33.70;32.60;;;;;;5050839;28;20028;-61
2023/10/18 00:55:57;;;;;;;12.88;2.72;;;33.70;34.70;;;;;;5058708;28;20033;-62
2023/10/18 00:58:24;;;;;;;23.15;2.67;;;33.50;34.40;;;;;;5048570;28;20344;-61
2023/10/18 01:00:52;;;;;;;18.08;3.55;;;33.40;33.90;;;;;;5050762;28;20058;-59
2023/10/18 01:03:36;;;;;;;32.63;10.27;;;33.30;35.00;;;;;;5046777;28;20178;-58
2023/10/18 01:06:17;;;;;;;35.83;9.95;;;33.10;33.80;;;;;;5045098;28;20061;-57
2023/10/18 01:08:47;;;;;;;30.63;8.27;;;33.00;34.10;;;;;;5048541;28;20134;-55
2023/10/18 01:11:15;;;;;;;30.33;7.45;;;32.90;33.50;;;;;;5041908;28;20143;-61
2023/10/18 01:13:43;;;;;;;39.97;7.97;;;32.80;33.40;;;;;;5045213;28;20079;-56
2023/10/18 01:16:14;;;;;;;33.58;6.85;;;32.60;33.60;;;;;;5046595;28;20059;-58
2023/10/18 01:18:48;;;;;;;37.08;7.60;;;32.50;33.50;;;;;;5050017;28;20037;-56
2023/10/18 01:21:17;;;;;;;40.97;7.25;;;32.50;34.50;;;;;;5046373;28;20112;-57
2023/10/18 01:24:08;;;;;;;37.80;7.75;;;32.30;34.20;;;;;;5059415;28;20122;-56
2023/10/18 01:26:38;;;;;;;38.42;7.82;;;32.20;35.00;;;;;;5050583;28;20048;-58
2023/10/18 01:29:08;;;;;;;36.33;9.02;;;32.10;36.20;;;;;;5044165;28;20065;-54
2023/10/18 01:31:35;;;;;;;41.58;11.77;;;32.00;37.00;;;;;;5043472;28;20059;-58
2023/10/18 01:34:03;;;;;;;59.83;16.30;;;31.90;37.30;;;;;;5040414;28;20566;-57
2023/10/18 01:36:33;;;;;;;54.58;16.65;;;31.70;36.90;;;;;;5043956;28;20106;-57
2023/10/18 01:38:59;;;;;;;56.05;16.77;;;31.60;36.90;;;;;;5042323;28;20054;-59
2023/10/18 01:41:28;;;;;;;49.17;13.93;;;31.50;38.10;;;;;;5054923;28;20057;-57
2023/10/18 01:44:10;;;;;;;51.50;9.55;;;31.40;38.10;;;;;;5058373;28;20054;-56
2023/10/18 01:46:48;;;;;;;62.05;10.45;;;31.30;38.50;;;;;;5057925;28;20420;-59
2023/10/18 01:49:21;;;;;;;52.38;8.98;;;31.20;38.70;;;;;;5053465;28;20579;-59
2023/10/18 01:51:54;;;;;;;46.70;7.70;;;31.10;39.40;;;;;;5058555;28;20057;-56
2023/10/18 01:54:25;;;;;;;59.88;7.75;;;30.90;38.90;;;;;;5049832;28;20546;-61
2023/10/18 01:56:57;;;;;;;55.55;8.48;;;30.80;39.10;;;;;;5052275;28;20398;-61
2023/10/18 01:59:34;;;;;;;48.33;8.23;;;30.70;39.40;;;;;;5054227;28;20111;-59
2023/10/18 02:02:06;;;;;;;49.55;8.23;;;30.60;39.50;;;;;;5051975;28;20045;-59
2023/10/18 02:04:37;;;;;;;60.33;8.70;;;30.60;39.80;;;;;;5050113;28;20062;-59
2023/10/18 02:07:07;;;;;;;55.20;8.30;;;30.50;40.20;;;;;;5058716;28;20142;-59
2023/10/18 02:09:52;;;;;;;70.53;8.80;;;30.40;40.90;;;;;;5053493;28;20086;-61
2023/10/18 02:12:19;;;;;;;67.13;9.27;;;30.30;41.60;;;;;;5052332;28;20546;-58
2023/10/18 02:14:46;;;;;;;55.63;8.02;;;30.30;42.20;;;;;;5062160;28;20764;-58
2023/10/18 02:17:12;;;;;;;55.92;7.88;;;30.20;41.10;;;;;;5056492;28;20049;-60
2023/10/18 02:19:39;;;;;;;44.60;7.18;;;30.10;41.30;;;;;;5056584;28;20107;-59
2023/10/18 02:22:08;;;;;;;60.03;8.07;;;30.00;41.60;;;;;;5060745;28;20053;-59
2023/10/18 02:24:36;;;;;;;75.43;9.70;;;30.00;41.00;;;;;;5053513;28;20063;-59
2023/10/18 02:27:03;;;;;;;78.30;9.63;;;29.90;41.20;;;;;;5053540;28;20099;-59
2023/10/18 02:29:35;;;;;;;60.58;8.30;;;29.80;41.30;;;;;;5048239;28;20068;-63
2023/10/18 02:32:04;;;;;;;57.63;8.98;;;29.70;41.40;;;;;;5052353;28;20062;-61
2023/10/18 02:34:34;;;;;;;50.60;8.02;;;29.70;42.20;;;;;;5052589;28;20082;-55
2023/10/18 02:37:01;;;;;;;69.35;9.05;;;29.60;42.10;;;;;;5050366;28;20217;-59
2023/10/18 02:39:32;;;;;;;63.05;12.40;;;29.50;41.90;;;;;;5051050;28;20054;-57
2023/10/18 02:41:59;;;;;;;55.90;12.70;;;29.50;43.10;;;;;;5056831;28;20487;-61
2023/10/18 02:44:29;;;;;;;73.60;11.77;;;29.40;43.40;;;;;;5060882;28;20079;-60
2023/10/18 02:47:07;;;;;;;73.55;11.98;;;29.40;43.60;;;;;;5055392;28;20067;-62
2023/10/18 02:49:34;;;;;;;73.32;10.75;;;29.20;42.90;;;;;;5055764;28;20115;-55
2023/10/18 02:52:03;;;;;;;62.03;11.77;;;29.20;42.90;;;;;;5048335;28;20060;-60
2023/10/18 02:54:32;;;;;;;85.93;15.13;;;29.10;43.20;;;;;;5047512;28;20116;-62
2023/10/18 02:56:59;;;;;;;82.05;14.50;;;29.10;43.30;;;;;;5047586;28;20055;-57
2023/10/18 02:59:27;;;;;;;81.80;15.02;;;28.90;43.30;;;;;;5059553;28;20065;-59
2023/10/18 03:02:00;;;;;;;93.75;14.25;;;28.90;44.10;;;;;;5048560;28;20091;-63
2023/10/18 03:04:29;;;;;;;97.97;12.98;;;28.90;45.00;;;;;;5047442;28;20077;-60
2023/10/18 03:06:58;;;;;;;96.60;13.07;;;28.90;44.40;;;;;;5048146;28;20063;-59
2023/10/18 03:11:58;;;;;;;97.45;13.68;;;28.70;44.60;;;;;;5047113;28;20063;-60
2023/10/18 03:15:08;;;;;;;86.18;13.10;;;28.70;45.00;;;;;;5046750;28;20521;-58
2023/10/18 03:17:19;;;;;;;83.28;12.93;;;28.60;45.30;;;;;;5048725;28;20058;-59
2023/10/18 03:19:55;;;;;;;81.32;12.80;;;28.60;45.70;;;;;;5056498;28;20056;-60
2023/10/18 03:22:31;;;;;;;94.63;13.95;;;28.50;45.40;;;;;;5051485;28;20138;-59
2023/10/18 03:25:00;;;;;;;88.82;13.38;;;28.50;45.50;;;;;;5057547;28;20062;-60
2023/10/18 03:27:33;;;;;;;85.90;13.00;;;28.40;45.50;;;;;;5053845;28;20420;-58
2023/10/18 03:30:11;;;;;;;71.68;13.10;;;28.30;45.40;;;;;;5058878;28;20070;-57
2023/10/18 03:32:38;;;;;;;76.35;13.43;;;28.30;45.30;;;;;;5066910;28;20070;-57
2023/10/18 03:35:09;;;;;;;84.55;13.57;;;28.20;44.80;;;;;;5052971;28;20073;-59
2023/10/18 03:37:39;;;;;;;72.97;12.25;;;28.20;45.40;;;;;;5047819;28;20554;-59
2023/10/18 03:40:29;;;;;;;61.90;13.43;;;28.20;46.60;;;;;;5047429;28;20500;-59
2023/10/18 03:42:54;;;;;;;87.55;13.40;;;28.10;46.30;;;;;;5047076;28;20072;-60
2023/10/18 03:45:58;;;;;;;83.07;14.20;;;28.10;46.10;;;;;;5057230;28;20061;-60
2023/10/18 03:48:23;;;;;;;85.57;14.38;;;28.00;46.30;;;;;;5061788;28;20112;-61
2023/10/18 03:50:50;;;;;;;78.88;13.40;;;28.00;46.20;;;;;;5048108;28;20143;-61
2023/10/18 03:53:18;;;;;;;102.07;14.57;;;27.90;46.90;;;;;;5046967;28;20218;-61
2023/10/18 03:55:45;;;;;;;67.90;13.73;;;27.90;46.80;;;;;;5060439;28;20093;-63
2023/10/18 03:58:22;;;;;;;89.32;14.80;;;27.90;47.10;;;;;;5065484;28;20055;-65
2023/10/18 04:00:54;;;;;;;93.45;15.32;;;27.80;47.00;;;;;;5060469;28;20066;-62
2023/10/18 04:03:20;;;;;;;97.00;15.15;;;27.80;47.40;;;;;;5049770;28;20079;-63
2023/10/18 04:05:50;;;;;;;119.57;17.42;;;27.70;47.10;;;;;;5049846;28;20065;-64
2023/10/18 04:08:19;;;;;;;114.63;17.90;;;27.70;47.60;;;;;;5047637;28;20537;-58
2023/10/18 04:10:58;;;;;;;83.93;16.25;;;27.70;47.50;;;;;;5047559;28;20063;-62
2023/10/18 04:13:27;;;;;;;96.68;16.75;;;27.70;48.20;;;;;;5058743;28;20565;-60
2023/10/18 04:16:09;;;;;;;110.50;17.98;;;27.60;48.30;;;;;;5054486;28;20160;-61
2023/10/18 04:18:36;;;;;;;105.43;18.00;;;27.60;48.00;;;;;;5050526;28;20142;-62
2023/10/18 04:21:12;;;;;;;93.43;19.55;;;27.50;48.20;;;;;;5047389;28;20076;-57
2023/10/18 04:23:38;;;;;;;110.45;19.35;;;27.50;48.30;;;;;;5052637;28;20072;-60
2023/10/18 04:26:10;;;;;;;115.32;19.77;;;27.50;49.60;;;;;;5058148;28;20070;-61
2023/10/18 04:28:37;;;;;;;132.80;20.08;;;27.40;48.80;;;;;;5050262;28;20073;-60
2023/10/18 04:31:08;;;;;;;143.20;20.92;;;27.40;49.60;;;;;;5053352;28;20217;-62
2023/10/18 04:33:36;;;;;;;125.10;19.23;;;27.30;49.00;;;;;;5052016;28;20597;-63
2023/10/18 04:36:14;;;;;;;121.60;20.75;;;27.30;49.40;;;;;;5052947;28;20080;-59
2023/10/18 04:38:43;;;;;;;116.95;19.00;;;27.30;49.70;;;;;;5053632;28;20159;-61
2023/10/18 04:46:32;;;;;;;102.18;18.17;;;27.20;50.40;;;;;;5053222;28;20528;-61
2023/10/18 04:51:27;;;;;;;103.50;30.35;;;27.10;50.40;;;;;;5063775;28;20109;-60
2023/10/18 04:53:59;;;;;;;127.15;32.20;;;27.00;49.80;;;;;;5055950;28;20078;-59
2023/10/18 04:56:37;;;;;;;137.45;33.88;;;27.00;49.40;;;;;;5050056;28;20073;-59
2023/10/18 04:59:52;;;;;;;110.15;20.85;;;27.00;49.00;;;;;;5051626;28;20067;-60
2023/10/18 05:01:56;;;;;;;95.15;20.15;;;27.00;48.60;;;;;;5044864;28;20084;-61
2023/10/18 05:04:32;;;;;;;98.40;19.35;;;27.00;50.70;;;;;;5053946;28;20114;-58
2023/10/18 05:07:01;;;;;;;111.57;20.27;;;27.00;49.10;;;;;;5054306;28;20476;-61
2023/10/18 05:09:34;;;;;;;102.35;21.13;;;26.90;48.90;;;;;;5048032;28;20109;-58
2023/10/18 05:12:16;;;;;;;100.35;21.27;;;26.90;49.70;;;;;;5055463;28;20063;-64
2023/10/18 05:14:49;;;;;;;103.65;23.63;;;26.90;49.90;;;;;;5059692;28;20185;-59
2023/10/18 05:17:23;;;;;;;92.75;21.45;;;26.90;50.20;;;;;;5056644;28;20069;-57
2023/10/18 05:19:51;;;;;;;97.43;20.58;;;26.90;50.00;;;;;;5050586;28;20526;-59
2023/10/18 05:22:23;;;;;;;108.82;23.15;;;26.80;49.60;;;;;;5050831;28;20073;-57
2023/10/18 05:27:45;;;;;;;124.70;24.77;;;26.80;50.40;;;;;;5052601;28;20088;-60
2023/10/18 05:30:16;;;;;;;128.32;25.65;;;26.70;50.40;;;;;;5060086;28;20097;-60
2023/10/18 05:35:28;;;;;;;151.05;26.45;;;26.60;50.90;;;;;;5050485;28;20599;-61
2023/10/18 05:37:59;;;;;;;164.40;25.25;;;26.60;50.60;;;;;;5057717;28;20117;-59
2023/10/18 05:43:12;;;;;;;139.50;25.63;;;26.60;50.50;;;;;;5058503;28;20093;-61
2023/10/18 05:45:42;;;;;;;154.13;57.47;;;26.50;51.80;;;;;;5063053;28;20583;-64
2023/10/18 05:48:18;;;;;;;129.07;36.00;;;26.50;51.40;;;;;;5055687;28;20149;-56
2023/10/18 05:50:49;;;;;;;138.03;50.53;;;26.40;51.80;;;;;;5063631;28;20097;-59
2023/10/18 05:53:19;;;;;;;139.02;40.20;;;26.40;51.60;;;;;;5061655;28;20066;-57
2023/10/18 05:55:53;;;;;;;104.55;23.95;;;26.40;51.90;;;;;;5061861;28;20068;-60
2023/10/18 05:58:26;;;;;;;111.97;24.90;;;26.30;52.00;;;;;;5061227;28;20436;-60
2023/10/18 06:00:56;;;;;;;118.20;23.65;;;26.30;52.20;;;;;;5062644;28;20450;-61
2023/10/18 06:03:25;;;;;;;142.50;24.73;;;26.30;51.90;;;;;;5055145;28;20120;-60
2023/10/18 06:05:55;;;;;;;131.57;24.27;;;26.30;52.50;;;;;;5050932;28;20110;-61
2023/10/18 06:08:23;;;;;;;138.40;25.10;;;26.20;51.50;;;;;;5058995;28;20163;-62
2023/10/18 06:11:08;;;;;;;119.95;22.75;;;26.20;51.30;;;;;;5060482;28;20195;-59
2023/10/18 06:13:40;;;;;;;114.75;22.35;;;26.20;51.20;;;;;;5049283;28;20157;-59
2023/10/18 06:16:19;;;;;;;136.32;24.00;;;26.20;52.30;;;;;;5049391;28;20097;-59
2023/10/18 06:18:49;;;;;;;122.25;22.73;;;26.10;51.60;;;;;;5048993;28;20159;-56
2023/10/18 06:21:19;;;;;;;122.40;23.92;;;26.10;51.80;;;;;;5048912;28;20075;-56
2023/10/18 06:23:56;;;;;;;137.25;23.85;;;26.10;51.40;;;;;;5064175;28;20079;-59
2023/10/18 06:26:30;;;;;;;120.35;23.40;;;26.00;52.40;;;;;;5048966;28;20075;-57
2023/10/18 06:29:00;;;;;;;110.95;23.20;;;26.00;52.40;;;;;;5048334;28;20088;-56
2023/10/18 06:31:31;;;;;;;120.57;22.63;;;26.00;52.40;;;;;;5059705;28;20086;-57
2023/10/18 06:34:03;;;;;;;118.28;25.90;;;25.90;52.30;;;;;;5051878;28;20082;-60
2023/10/18 06:36:33;;;;;;;121.70;25.42;;;25.90;52.60;;;;;;5049379;28;20074;-55
2023/10/18 06:38:59;;;;;;;146.75;26.50;;;25.90;52.10;;;;;;5046934;28;20396;-59
2023/10/18 06:41:29;;;;;;;121.18;24.80;;;25.90;52.20;;;;;;5051733;28;20429;-54
2023/10/18 06:43:58;;;;;;;107.25;23.35;;;25.80;52.40;;;;;;5048567;28;20151;-57
2023/10/18 06:46:28;;;;;;;131.75;25.00;;;25.80;53.00;;;;;;5048551;28;20481;-56
2023/10/18 06:48:57;;;;;;;127.15;24.23;;;25.70;54.00;;;;;;5061700;28;20094;-60
2023/10/18 06:51:40;;;;;;;109.57;23.27;;;25.70;52.60;;;;;;5048435;28;20162;-57
2023/10/18 06:54:30;;;;;;;115.82;24.83;;;25.70;53.60;;;;;;5047699;28;20493;-59
2023/10/18 06:56:54;;;;;;;;;;;25.70;53.70;;;;;;5048465;28;20750;-59
2023/10/18 06:59:27;;;;;;;110.15;24.35;;;25.60;53.50;;;;;;5048318;28;19963;-57
2023/10/18 07:01:59;;;;;;;119.18;25.48;;;25.60;53.80;;;;;;5056666;28;20080;-57
2023/10/18 07:04:37;;;;;;;128.77;28.10;;;25.60;53.30;;;;;;5048388;28;20102;-57
2023/10/18 07:07:20;;;;;;;124.55;27.63;;;25.60;54.20;;;;;;5055623;28;20655;-56
2023/10/18 07:09:53;;;;;;;124.78;26.27;;;25.60;53.70;;;;;;5055926;28;20291;-59
2023/10/18 07:12:26;;;;;;;125.82;26.75;;;25.50;53.10;;;;;;5048152;28;20090;-56
2023/10/18 07:14:57;;;;;;;151.88;27.73;;;25.50;52.60;;;;;;5047121;28;20196;-57
2023/10/18 07:17:26;;;;;;;117.75;23.48;;;25.50;52.40;;;;;;5056718;28;20074;-57
2023/10/18 07:19:56;;;;;;;123.05;22.70;;;25.50;52.10;;;;;;5048232;28;20190;-61
2023/10/18 07:25:21;;;;;;;103.45;21.00;;;25.50;52.10;;;;;;5047410;28;20136;-58
2023/10/18 07:27:49;;;;;;;107.18;22.67;;;25.40;51.70;;;;;;5056842;28;20141;-56
2023/10/18 07:30:16;;;;;;;109.53;22.38;;;25.40;52.10;;;;;;5049283;28;20100;-57
2023/10/18 07:32:47;;;;;;;97.05;21.85;;;25.40;52.00;;;;;;5048106;28;20174;-57
2023/10/18 07:35:26;;;;;;;88.10;21.52;;;25.30;52.60;;;;;;5060083;28;20548;-60
2023/10/18 07:37:55;;;;;;;86.60;21.48;;;25.20;53.30;;;;;;5052821;28;20081;-56
2023/10/18 07:40:23;;;;;;;94.25;22.60;;;25.10;53.50;;;;;;5050050;28;20152;-56
2023/10/18 07:42:53;;;;;;;101.25;21.73;;;25.10;53.70;;;;;;5047340;28;20573;-60
2023/10/18 07:45:21;;;;;;;97.93;20.33;;;25.00;53.30;;;;;;5047795;28;20085;-58
2023/10/18 07:47:55;;;;;;;95.25;21.15;;;25.00;53.30;;;;;;5054539;28;20085;-59
2023/10/18 07:53:21;;;;;;;77.68;18.50;;;24.90;53.00;;;;;;5025180;28;20194;-58
2023/10/18 07:55:53;;;;;;;71.90;17.20;;;24.90;52.70;;;;;;5025133;28;20081;-60
2023/10/18 07:58:32;;;;;;;77.47;16.85;;;24.80;52.20;;;;;;5043357;28;20104;-59
2023/10/18 08:03:32;;;;;;;98.43;19.92;;;24.80;53.20;;;;;;5039147;28;20145;-55
2023/10/18 08:05:59;;;;;;;83.75;19.95;;;24.70;52.90;;;;;;5044530;28;20496;-58
2023/10/18 08:08:26;;;;;;;89.28;18.92;;;24.70;53.60;;;;;;5044459;28;20115;-60
2023/10/18 08:10:54;;;;;;;76.38;17.83;;;24.70;53.20;;;;;;5044978;28;20095;-57
2023/10/18 08:13:27;;;;;;;80.00;19.05;;;24.70;53.60;;;;;;5045393;28;20543;-61
2023/10/18 08:15:54;;;;;;;80.60;18.50;;;24.60;53.60;;;;;;5036652;28;20548;-58
2023/10/18 08:18:42;;;;;;;97.30;19.58;;;24.60;55.10;;;;;;5033557;28;20087;-58
2023/10/18 08:21:07;;;;;;;83.00;21.52;;;24.50;55.10;;;;;;5024962;28;20089;-59
2023/10/18 08:23:34;;;;;;;82.85;20.08;;;24.40;54.40;;;;;;5026071;28;20103;-59
2023/10/18 08:26:04;;;;;;;70.90;19.15;;;24.40;55.20;;;;;;5040570;28;20094;-58
2023/10/18 08:28:38;;;;;;;96.63;21.40;;;24.40;55.20;;;;;;5030436;28;20427;-59
2023/10/18 08:31:32;;;;;;;90.28;22.02;;;24.30;54.40;;;;;;5046337;28;20423;-58
2023/10/18 08:34:05;;;;;;;101.10;20.95;;;24.30;54.00;;;;;;5047124;28;20185;-56
2023/10/18 08:36:34;;;;;;;90.57;22.67;;;24.30;54.40;;;;;;5046928;28;20241;-59
2023/10/18 08:39:02;;;;;;;97.20;22.95;;;24.20;54.30;;;;;;5046761;28;20417;-57
2023/10/18 08:41:33;;;;;;;86.25;22.15;;;24.30;55.10;;;;;;5045378;28;20081;-55
2023/10/18 08:44:16;;;;;;;102.80;23.83;;;24.20;54.90;;;;;;5046711;28;20131;-57
2023/10/18 08:46:51;;;;;;;86.00;26.60;;;24.30;55.10;;;;;;5047028;28;20099;-59
2023/10/18 08:49:24;;;;;;;82.15;29.15;;;24.20;54.50;;;;;;5049509;28;20473;-58
2023/10/18 08:52:04;;;;;;;106.78;31.92;;;24.10;54.20;;;;;;5050779;28;20071;-57
2023/10/18 08:54:32;;;;;;;88.53;26.88;;;24.10;54.50;;;;;;5050312;28;20545;-58
2023/10/18 08:57:06;;;;;;;94.30;24.58;;;24.10;54.60;;;;;;5050738;28;20079;-56
2023/10/18 08:59:48;;;;;;;104.50;24.60;;;24.10;55.10;;;;;;5049642;28;20783;-58
2023/10/18 09:02:23;;;;;;;81.45;23.17;;;24.00;56.20;;;;;;5050450;28;20170;-58
2023/10/18 09:04:55;;;;;;;77.05;22.23;;;24.00;55.40;;;;;;5050931;28;20161;-62
2023/10/18 09:07:22;;;;;;;76.82;22.52;;;23.90;55.70;;;;;;5049444;28;20089;-57
2023/10/18 09:09:57;;;;;;;77.32;20.77;;;23.90;56.00;;;;;;5053694;28;20086;-59
2023/10/18 09:15:27;;;;;;;84.13;21.25;;;23.90;56.20;;;;;;5050708;28;20104;-59
2023/10/18 09:18:03;;;;;;;72.90;19.00;;;23.90;56.20;;;;;;5054411;28;20170;-58
2023/10/18 09:20:31;;;;;;;65.38;19.35;;;23.80;56.50;;;;;;5065985;28;20074;-56
2023/10/18 09:23:05;;;;;;;68.82;18.67;;;23.80;56.90;;;;;;5059987;28;20079;-56
2023/10/18 09:25:48;;;;;;;82.95;19.75;;;23.80;57.40;;;;;;5049591;28;20106;-60
2023/10/18 09:28:42;;;;;;;65.78;17.50;;;23.70;56.40;;;;;;5049323;28;20102;-58
2023/10/18 09:31:14;;;;;;;63.80;17.67;;;23.70;56.40;;;;;;5051902;28;20087;-58
2023/10/18 09:33:56;;;;;;;65.05;17.15;;;23.70;58.20;;;;;;5049955;28;20094;-59
2023/10/18 09:36:27;;;;;;;62.40;16.40;;;23.60;56.80;;;;;;5052230;28;20838;-58
2023/10/18 09:38:55;;;;;;;53.83;14.80;;;23.60;56.50;;;;;;5053083;28;20132;-57
2023/10/18 09:41:23;;;;;;;63.20;15.48;;;23.60;56.00;;;;;;5053980;28;20156;-57
2023/10/18 09:43:49;;;;;;;45.33;12.73;;;23.60;56.80;;;;;;5054215;28;20091;-57
2023/10/18 09:46:18;;;;;;;36.90;12.45;;;23.60;55.40;;;;;;5049694;28;20078;-57
2023/10/18 09:48:46;;;;;;;44.53;12.13;;;23.60;55.00;;;;;;5060928;28;20170;-59
2023/10/18 09:51:15;;;;;;;36.13;9.90;;;23.60;55.30;;;;;;5068110;28;20074;-56
2023/10/18 09:53:49;;;;;;;44.67;9.00;;;23.60;54.40;;;;;;5050840;28;20174;-59
2023/10/18 09:56:35;;;;;;;33.42;8.73;;;23.60;53.20;;;;;;5049512;28;20649;-58
2023/10/18 09:59:11;;;;;;;27.27;6.97;;;23.60;52.60;;;;;;5048770;28;20090;-56
2023/10/18 10:04:17;;;;;;;34.35;6.97;;;23.60;51.10;;;;;;5050102;28;20133;-56
2023/10/18 10:06:48;;;;;;;25.60;6.05;;;23.60;51.00;;;;;;5049768;28;20535;-55
2023/10/18 10:09:15;;;;;;;25.55;6.10;;;23.60;51.50;;;;;;5054290;28;20178;-56
2023/10/18 10:11:43;;;;;;;23.98;6.53;;;23.50;51.60;;;;;;5052083;28;20558;-58
2023/10/18 10:14:21;;;;;;;25.38;6.20;;;23.50;51.00;;;;;;5048885;28;20477;-58
2023/10/18 10:16:56;;;;;;;21.67;5.72;;;23.60;50.80;;;;;;5048692;28;20079;-57
2023/10/18 10:19:29;;;;;;;31.33;5.82;;;23.50;50.00;;;;;;5049245;28;20455;-56
2023/10/18 10:22:07;;;;;;;18.10;4.47;;;23.50;50.50;;;;;;5049708;28;20071;-55
2023/10/18 10:24:43;;;;;;;18.83;4.18;;;23.60;49.20;;;;;;5054967;28;20078;-54
2023/10/18 10:27:49;;;;;;;;;;;23.60;48.70;;;;;;5049170;28;20211;-55
2023/10/18 10:32:46;;;;;;;13.63;3.65;;;23.60;48.40;;;;;;5049274;28;20161;-55
2023/10/18 10:35:24;;;;;;;37.58;15.73;;;23.60;48.40;;;;;;5049279;28;20179;-54
2023/10/18 10:38:00;;;;;;;18.13;3.60;;;23.70;47.50;;;;;;5049885;28;20085;-59
2023/10/18 10:43:08;;;;;;;20.42;3.95;;;23.70;47.90;;;;;;5048929;28;20081;-56
2023/10/18 10:48:18;;;;;;;12.65;2.90;;;23.60;47.40;;;;;;5052205;28;20165;-57
2023/10/18 10:53:57;;;;;;;16.27;3.47;;;23.70;47.70;;;;;;5048575;28;20095;-58
2023/10/18 10:56:26;;;;;;;15.63;3.00;;;23.70;48.20;;;;;;5058301;28;20142;-58
2023/10/18 11:01:43;;;;;;;8.45;2.80;;;23.70;48.40;;;;;;5048487;28;20122;-57
2023/10/18 11:04:25;;;;;;;14.45;2.97;;;23.70;47.50;;;;;;5048605;28;20071;-56
2023/10/18 11:07:01;;;;;;;17.17;2.83;;;23.80;47.40;;;;;;5048621;28;20561;-60
2023/10/18 11:09:38;;;;;;;16.23;2.70;;;23.80;47.40;;;;;;5060549;28;20551;-57
2023/10/18 11:12:20;;;;;;;8.18;2.40;;;23.80;47.10;;;;;;5068117;28;20136;-57
2023/10/18 11:14:50;;;;;;;8.65;2.45;;;23.90;46.80;;;;;;5046809;28;20164;-57
2023/10/18 11:19:54;;;;;;;11.50;3.10;;;23.80;48.20;;;;;;5049879;28;20075;-57
2023/10/18 11:22:24;;;;;;;13.45;2.70;;;23.80;47.90;;;;;;5059868;28;20453;-60
2023/10/18 11:24:55;;;;;;;19.10;2.55;;;23.80;47.80;;;;;;5049941;28;20079;-57
2023/10/18 11:27:25;;;;;;;17.80;2.67;;;23.70;47.60;;;;;;5047756;28;20078;-57
2023/10/18 11:30:04;;;;;;;8.10;2.65;;;23.70;47.20;;;;;;5047423;28;20141;-59
2023/10/18 11:32:30;;;;;;;14.63;2.85;;;23.60;48.20;;;;;;5047700;28;20182;-56
2023/10/18 11:35:08;;;;;;;8.15;2.50;;;23.60;48.10;;;;;;5048373;28;20137;-58
2023/10/18 11:37:39;;;;;;;10.85;2.67;;;23.60;48.10;;;;;;5056994;28;20442;-60
2023/10/18 11:40:18;;;;;;;18.38;2.88;;;23.60;48.10;;;;;;5046162;28;20439;-56
2023/10/18 11:42:55;;;;;;;13.32;3.05;;;23.60;48.20;;;;;;5046177;28;20078;-57
2023/10/18 11:45:21;;;;;;;;;;;23.50;48.40;;;;;;5047553;28;20090;-57
2023/10/18 11:47:51;;;;;;;16.50;3.40;;;23.50;48.80;;;;;;5056189;28;20385;-57
2023/10/18 11:50:27;;;;;;;20.33;3.67;;;23.40;50.10;;;;;;5052269;28;20658;-58
2023/10/18 11:52:54;;;;;;;36.97;4.30;;;23.30;50.10;;;;;;5047285;28;20083;-57
2023/10/18 11:55:20;;;;;;;37.72;4.30;;;23.30;50.00;;;;;;5052093;28;20107;-56
2023/10/18 11:57:47;;;;;;;22.40;4.28;;;23.20;51.00;;;;;;5060134;28;20475;-60
2023/10/18 12:00:38;;;;;;;19.33;3.95;;;23.10;51.10;;;;;;5047287;28;20078;-59
2023/10/18 12:03:05;;;;;;;18.67;3.47;;;23.10;51.20;;;;;;5047322;28;20094;-57
2023/10/18 12:05:32;;;;;;;12.23;3.30;;;23.00;51.00;;;;;;5047729;28;20169;-58
2023/10/18 12:08:05;;;;;;;16.65;3.08;;;23.00;51.10;;;;;;5047361;28;20092;-60
2023/10/18 12:10:34;;;;;;;11.57;3.47;;;22.90;50.40;;;;;;5046691;28;20551;-57
2023/10/18 12:13:12;;;;;;;20.23;4.43;;;22.90;49.70;;;;;;5056905;28;20097;-61
2023/10/18 12:15:39;;;;;;;33.15;4.38;;;22.90;49.90;;;;;;5049021;28;20144;-59
2023/10/18 12:18:14;;;;;;;24.65;4.50;;;22.90;50.00;;;;;;5046937;28;20448;-55
2023/10/18 12:20:44;;;;;;;16.80;3.50;;;22.90;50.30;;;;;;5056812;28;20077;-60
2023/10/18 12:23:21;;;;;;;25.80;3.58;;;22.90;49.60;;;;;;5059566;28;20081;-58
2023/10/18 12:25:49;;;;;;;14.95;3.20;;;22.70;50.20;;;;;;5060062;28;20068;-58
2023/10/18 12:28:27;;;;;;;22.77;3.35;;;22.60;51.10;;;;;;5045440;28;20079;-59
2023/10/18 12:30:55;;;;;;;14.10;3.40;;;22.50;51.80;;;;;;5047007;28;20092;-59
2023/10/18 12:33:27;;;;;;;12.40;3.35;;;22.40;52.10;;;;;;5046943;28;20174;-60
2023/10/18 12:35:59;;;;;;;24.77;4.30;;;22.40;53.40;;;;;;5047130;28;20075;-58
2023/10/18 12:38:38;;;;;;;23.50;4.35;;;22.30;52.30;;;;;;5046858;28;20202;-59
2023/10/18 12:41:07;;;;;;;25.67;4.38;;;22.40;52.90;;;;;;5058676;28;20175;-59
2023/10/18 12:43:44;;;;;;;23.10;5.20;;;22.40;52.70;;;;;;5050295;28;20075;-59
2023/10/18 12:46:15;;;;;;;;;;;22.40;52.00;;;;;;5047646;28;20114;-59
2023/10/18 12:48:43;;;;;;;28.48;6.85;;;22.40;51.50;;;;;;5052502;28;19974;-59
2023/10/18 12:51:12;;;;;;;31.15;6.60;;;22.30;50.70;;;;;;5059273;28;20594;-59
2023/10/18 12:53:47;;;;;;;35.03;6.80;;;22.30;50.30;;;;;;5060445;28;20158;-57
2023/10/18 12:56:31;;;;;;;32.58;7.32;;;22.30;50.80;;;;;;5045225;28;20079;-58
2023/10/18 12:59:11;;;;;;;34.47;8.75;;;22.40;51.60;;;;;;5046403;28;20075;-60
2023/10/18 13:04:16;;;;;;;39.35;9.70;;;22.30;51.30;;;;;;5047360;28;20087;-57
2023/10/18 13:06:44;;;;;;;49.03;10.35;;;22.30;51.80;;;;;;5046738;28;20562;-61
2023/10/18 13:09:15;;;;;;;73.32;12.45;;;22.30;51.80;;;;;;5053075;28;20558;-58
2023/10/18 13:14:31;;;;;;;54.90;11.43;;;22.30;52.10;;;;;;5046121;28;20106;-61
2023/10/18 13:17:00;;;;;;;44.25;11.13;;;22.30;52.10;;;;;;5051343;28;20079;-59
2023/10/18 13:19:29;;;;;;;44.63;10.35;;;22.30;52.20;;;;;;5046309;28;20171;-58
2023/10/18 13:21:56;;;;;;;41.33;10.63;;;22.30;52.90;;;;;;5049344;28;20076;-58
2023/10/18 13:26:52;;;;;;;48.58;11.38;;;22.10;54.00;;;;;;5046321;28;20095;-58
2023/10/18 13:31:49;;;;;;;74.28;14.32;;;22.10;53.10;;;;;;5046451;28;20551;-58
2023/10/18 13:34:21;;;;;;;54.58;13.45;;;22.20;53.60;;;;;;5064082;28;20164;-57
2023/10/18 13:36:49;;;;;;;58.55;12.85;;;22.10;53.00;;;;;;5055251;28;20560;-59
2023/10/18 13:39:16;;;;;;;55.95;12.52;;;22.10;53.50;;;;;;5049077;28;20076;-60
2023/10/18 13:41:47;;;;;;;53.80;12.25;;;22.10;54.50;;;;;;5049115;28;20076;-58
2023/10/18 13:44:14;;;;;;;71.75;14.13;;;22.10;54.40;;;;;;5048345;28;20562;-55
2023/10/18 13:46:40;;;;;;;58.75;13.05;;;22.00;53.80;;;;;;5049971;28;20105;-58
2023/10/18 13:49:12;;;;;;;72.05;13.95;;;22.00;53.80;;;;;;5053371;28;20715;-60
2023/10/18 13:51:41;;;;;;;52.33;12.75;;;22.00;54.30;;;;;;5067341;28;20114;-59
2023/10/18 13:54:08;;;;;;;72.88;15.43;;;22.00;54.80;;;;;;5049099;28;20110;-57
2023/10/18 13:56:35;;;;;;;69.28;15.38;;;21.90;54.80;;;;;;5049602;28;20072;-61